SBUL/UDI METAR and TAF weather

Enter ICAO airport designator
Station Type Date Time Source
SBUL METAR 2022/12/05 14:00 UTC NOAA

SBUL 051400Z 02011KT 9999 BKN013 24/18 Q1018


Station Type Date Time Source
SBUL Decoded METAR 2022/12/05 14:00 UTC NOAA

Uberlandia , Brazil (SBUL) 18-53S 048-14W
Dec 05, 2022 - 09:00 AM EST / 2022.12.05 1400 UTC
Wind: from the NNE (020 degrees) at 13 MPH (11 KT):0
Visibility: greater than 7 mile(s):0
Sky conditions: mostly cloudy
Temperature: 75 F (24 C)
Dew Point: 64 F (18 C)
Relative Humidity: 69%
Pressure (altimeter): 30.06 in. Hg (1018 hPa)
ob: SBUL 051400Z 02011KT 9999 BKN013 24/18 Q1018
cycle: 14

Station Type Date Time Source
SBUL TAF 2022/12/05 12:33 UTC NOAA

TAF SBUL 050830Z 0512/0524 06003KT 6000 BKN015 TX27/0516Z TN20/0523Z
BECMG 0512/0513 02005KT SCT040
BECMG 0514/0516 SCT040 FEW045TCU
TEMPO 0516/0518 TSRA SCT040 FEW045CB
TEMPO 0519/0522 22010KT TSRA BKN030 FEW040CB
RMK PHH

Example: see airport list